Danielsville, Georgia
Current Conditions -  °F | °C
As of 10:51 AM on Sunday 21 Dec 2014 (Local Time) from KAHN Reporting Station
Haze Haze  
Wind Chill: 42°   Ceiling: 600
Heat Index: 46°   Visibility: 4mi
Dew Point: 44°   Wind: 7mph
Humidity: 93%   Direction: 80°E
Pressure: 30.23"   Gusts: NA
Location:  34.12°N, 83.22°W
Report Text: KAHN 211551Z 08006KT 4SM BR OVC006 08/07 A3023 RMK AO2 SLP241 T00780067
Loading
Personal Weather Stations






























Interactive Weather Map New forecast layout! Learn more

10-Day Weather Forecast

Advertisements
Track Severe Weather on mobile